createdAt,value
2019-05-13T00:01:08.635Z,99.90
2019-05-13T00:03:43.985Z,99.90
2019-05-13T00:10:24.414Z,99.90
2019-05-13T00:13:09.601Z,99.90
2019-05-13T00:15:48.821Z,99.90
2019-05-13T00:18:25.048Z,99.90
2019-05-13T00:21:04.327Z,99.90
2019-05-13T00:23:55.775Z,99.90
2019-05-13T00:26:27.606Z,99.90
2019-05-13T00:28:58.152Z,1.00
2019-05-13T00:31:29.792Z,1.40
2019-05-13T00:34:03.734Z,1.00
2019-05-13T00:36:37.645Z,1.00
2019-05-13T00:39:11.291Z,1.00
2019-05-13T00:44:58.626Z,1.00
2019-05-13T00:47:29.515Z,1.00
2019-05-13T00:50:00.134Z,1.00
2019-05-13T00:52:36.803Z,1.00
2019-05-13T00:55:09.987Z,1.00
2019-05-13T00:57:43.449Z,1.00
2019-05-13T01:00:35.447Z,1.00
2019-05-13T01:03:07.570Z,1.00
2019-05-13T01:05:39.930Z,1.00
2019-05-13T01:08:15.015Z,1.00
2019-05-13T01:10:45.818Z,1.00
2019-05-13T01:13:17.255Z,1.00
2019-05-13T01:15:50.730Z,1.00
2019-05-13T01:18:24.166Z,1.00
2019-05-13T01:20:54.907Z,1.00
2019-05-13T01:23:25.672Z,1.00
2019-05-13T01:25:56.751Z,1.00
2019-05-13T01:28:27.413Z,1.00
2019-05-13T01:31:00.017Z,1.00
2019-05-13T01:33:31.222Z,1.00
2019-05-13T01:36:05.011Z,1.00
2019-05-13T01:38:34.668Z,1.00
2019-05-13T01:41:05.401Z,1.00
2019-05-13T01:43:36.081Z,1.00
2019-05-13T01:46:06.745Z,1.00
2019-05-13T01:48:37.505Z,1.00
2019-05-13T01:51:09.071Z,1.00
2019-05-13T01:53:39.766Z,1.00
2019-05-13T01:56:10.518Z,1.00
2019-05-13T01:58:41.193Z,1.00
2019-05-13T02:01:14.489Z,1.00
2019-05-13T02:03:45.450Z,1.00
2019-05-13T02:06:18.631Z,1.00
2019-05-13T02:08:49.227Z,1.00
2019-05-13T02:11:23.893Z,1.00
2019-05-13T02:13:57.578Z,1.00
2019-05-13T02:16:55.956Z,1.00
2019-05-13T02:19:26.751Z,1.00
2019-05-13T02:22:03.676Z,1.00
2019-05-13T02:24:34.384Z,1.00
2019-05-13T02:27:05.650Z,1.00
2019-05-13T02:29:39.526Z,1.00
2019-05-13T02:32:13.727Z,1.00
2019-05-13T02:36:28.718Z,1.00
2019-05-13T02:39:15.701Z,1.00
2019-05-13T02:41:46.479Z,1.00
2019-05-13T02:49:32.437Z,1.00
2019-05-13T02:52:55.965Z,1.00
2019-05-13T02:55:26.773Z,1.00
2019-05-13T02:58:04.687Z,1.00
2019-05-13T03:00:53.520Z,1.00
2019-05-13T03:03:36.099Z,1.00
2019-05-13T03:06:06.694Z,2.80
2019-05-13T03:08:58.271Z,1.00
2019-05-13T03:11:47.116Z,1.00
2019-05-13T03:14:17.774Z,1.00
2019-05-13T03:19:38.286Z,4.50
2019-05-13T03:22:26.786Z,1.00
2019-05-13T03:24:57.400Z,15.50
2019-05-13T03:30:57.401Z,9.60
2019-05-13T03:33:29.137Z,4.30
2019-05-13T03:36:06.382Z,1.00
2019-05-13T03:38:59.706Z,1.00
2019-05-13T03:41:23.020Z,4.10
2019-05-13T03:47:13.828Z,11.00
2019-05-13T03:50:17.827Z,28.80
2019-05-13T03:55:34.230Z,25.30
2019-05-13T03:58:13.057Z,26.30
2019-05-13T04:00:44.824Z,20.20
2019-05-13T04:03:39.272Z,8.20
2019-05-13T04:06:13.960Z,23.50
2019-05-13T04:08:44.783Z,30.00
2019-05-13T04:11:17.955Z,22.50
2019-05-13T04:13:48.486Z,39.40
2019-05-13T04:16:24.093Z,35.30
2019-05-13T04:18:55.592Z,25.20
2019-05-13T04:21:27.782Z,13.50
2019-05-13T04:23:58.312Z,11.20
2019-05-13T04:26:32.350Z,1.00
2019-05-13T04:29:03.846Z,1.00
2019-05-13T04:31:34.751Z,1.00
2019-05-13T04:43:43.943Z,1.00
2019-05-13T04:46:22.792Z,1.00
2019-05-13T05:06:33.329Z,1.00
2019-05-13T05:13:08.749Z,1.00
2019-05-13T05:20:08.285Z,1.00
2019-05-13T05:27:33.151Z,1.00
2019-05-13T05:30:36.620Z,99.90
2019-05-13T05:33:51.523Z,99.90
2019-05-13T05:36:54.899Z,99.90
2019-05-13T05:42:44.123Z,99.90
2019-05-13T05:45:22.685Z,99.90
2019-05-13T05:48:02.428Z,99.90
2019-05-13T05:50:37.721Z,99.90
2019-05-13T05:53:12.643Z,99.90
2019-05-13T05:59:21.829Z,99.90
2019-05-13T06:02:06.796Z,99.90
2019-05-13T06:07:32.400Z,99.90
2019-05-13T06:10:07.874Z,99.90
2019-05-13T06:12:39.229Z,99.90
2019-05-13T06:15:12.180Z,99.90
2019-05-13T06:17:44.339Z,88.20
2019-05-13T06:20:16.233Z,89.80
2019-05-13T06:22:51.668Z,81.20
2019-05-13T06:25:25.347Z,69.40
2019-05-13T06:27:57.154Z,98.50
2019-05-13T06:30:29.173Z,73.80
2019-05-13T06:33:01.746Z,99.90
2019-05-13T06:35:36.396Z,44.30
2019-05-13T06:38:11.871Z,22.60
2019-05-13T06:40:43.321Z,37.20
2019-05-13T06:43:13.768Z,14.20
2019-05-13T06:45:46.847Z,13.50
2019-05-13T06:48:17.280Z,19.00
2019-05-13T06:50:47.865Z,18.40
2019-05-13T06:53:18.637Z,12.10
2019-05-13T06:55:49.324Z,7.20
2019-05-13T06:58:22.075Z,6.40
2019-05-13T07:00:52.041Z,1.00
2019-05-13T07:03:24.243Z,1.00
2019-05-13T07:05:57.155Z,1.00
2019-05-13T07:08:27.722Z,1.00
2019-05-13T07:10:58.151Z,1.00
2019-05-13T07:13:28.554Z,1.00
2019-05-13T07:16:01.257Z,1.00
2019-05-13T07:18:32.332Z,1.00
2019-05-13T07:21:03.751Z,1.00
2019-05-13T07:23:34.162Z,1.00
2019-05-13T07:26:05.642Z,1.00
2019-05-13T07:28:36.108Z,1.00
2019-05-13T07:31:06.597Z,1.00
2019-05-13T07:33:37.208Z,1.00
2019-05-13T07:36:07.754Z,1.00
2019-05-13T07:38:38.362Z,1.00
2019-05-13T07:41:08.873Z,1.00
2019-05-13T07:43:39.290Z,1.00
2019-05-13T07:46:12.386Z,1.00
2019-05-13T07:48:41.982Z,1.00
2019-05-13T07:51:13.625Z,1.00
2019-05-13T07:53:44.106Z,1.00
2019-05-13T07:56:14.528Z,1.00
2019-05-13T07:58:46.704Z,1.00
2019-05-13T08:01:22.099Z,1.00
2019-05-13T08:03:52.801Z,1.00
2019-05-13T08:06:26.666Z,1.00
2019-05-13T08:08:58.084Z,1.00
2019-05-13T08:11:34.976Z,1.00
2019-05-13T08:14:13.168Z,1.00
2019-05-13T08:17:02.646Z,1.00
2019-05-13T08:19:38.182Z,1.00
2019-05-13T08:22:21.840Z,1.00
2019-05-13T08:24:58.912Z,1.00
2019-05-13T08:27:41.979Z,1.00
2019-05-13T08:33:12.453Z,1.00
2019-05-13T08:35:58.894Z,1.00
2019-05-13T08:38:47.425Z,1.00
2019-05-13T08:56:27.274Z,1.00
2019-05-13T08:58:57.722Z,1.00
2019-05-13T09:01:31.933Z,1.00
2019-05-13T09:04:07.804Z,1.00
2019-05-13T09:06:42.783Z,1.00
2019-05-13T09:09:17.227Z,1.00
2019-05-13T09:11:48.500Z,1.00
2019-05-13T09:14:28.512Z,1.00
2019-05-13T09:17:01.812Z,1.00
2019-05-13T09:19:32.727Z,1.00
2019-05-13T09:22:15.104Z,1.00
2019-05-13T09:24:45.592Z,1.00
2019-05-13T09:27:18.925Z,1.00
2019-05-13T09:32:51.284Z,1.00
2019-05-13T09:35:22.651Z,1.00
2019-05-13T09:37:56.238Z,1.00
2019-05-13T09:40:33.220Z,1.00
2019-05-13T09:43:04.984Z,1.00
2019-05-13T09:45:41.754Z,1.00
2019-05-13T09:48:44.054Z,1.00
2019-05-13T09:51:21.627Z,1.00
2019-05-13T09:53:58.220Z,1.00
2019-05-13T09:56:28.701Z,1.00
2019-05-13T09:59:01.542Z,1.00
2019-05-13T10:01:32.163Z,1.00
2019-05-13T10:04:03.263Z,1.00
2019-05-13T10:06:33.899Z,1.00
2019-05-13T10:09:08.345Z,1.00
2019-05-13T10:11:40.689Z,1.00
2019-05-13T10:14:11.959Z,1.00
2019-05-13T10:16:42.769Z,1.00
2019-05-13T10:19:13.186Z,1.00
2019-05-13T10:21:43.748Z,1.00
2019-05-13T10:24:15.201Z,1.00
2019-05-13T10:26:47.015Z,1.00
2019-05-13T10:29:22.079Z,1.00
2019-05-13T10:31:52.594Z,1.00
2019-05-13T10:34:23.845Z,1.00
2019-05-13T10:36:54.929Z,1.00
2019-05-13T10:39:27.231Z,1.00
2019-05-13T10:41:57.664Z,1.00
2019-05-13T10:44:28.224Z,1.00
2019-05-13T10:47:02.558Z,1.00
2019-05-13T10:49:33.469Z,1.00
2019-05-13T10:52:04.813Z,1.00
2019-05-13T10:54:36.073Z,1.00
2019-05-13T11:04:33.591Z,1.00
2019-05-13T11:07:22.248Z,1.00
2019-05-13T11:16:43.727Z,1.00
2019-05-13T11:19:24.239Z,1.00
2019-05-13T11:22:07.681Z,1.00
2019-05-13T11:25:08.886Z,1.00
2019-05-13T11:34:07.204Z,1.00
2019-05-13T11:37:23.256Z,1.00
2019-05-13T11:45:26.349Z,1.00
2019-05-13T11:50:22.368Z,1.00
2019-05-13T12:00:26.448Z,1.00
2019-05-13T12:05:53.954Z,1.00
2019-05-13T12:14:56.564Z,1.00
2019-05-13T12:33:36.207Z,1.00
2019-05-13T12:36:17.776Z,1.00
2019-05-13T12:39:06.886Z,1.00
2019-05-13T12:41:43.007Z,1.00
2019-05-13T12:49:54.678Z,1.00
2019-05-13T12:52:25.241Z,1.00
2019-05-13T12:58:09.663Z,1.00
2019-05-13T13:00:43.707Z,1.00
2019-05-13T13:03:23.349Z,1.00
2019-05-13T13:06:21.033Z,1.00
2019-05-13T13:08:39.990Z,1.00
2019-05-13T13:11:03.080Z,1.00
2019-05-13T13:13:56.646Z,1.00
2019-05-13T13:16:05.834Z,1.00
2019-05-13T13:18:43.401Z,1.00
2019-05-13T13:21:14.770Z,1.00
2019-05-13T13:23:45.329Z,1.00
2019-05-13T13:26:16.409Z,1.00
2019-05-13T13:28:47.108Z,1.00
2019-05-13T13:35:33.690Z,1.00
2019-05-13T13:38:26.214Z,1.00
2019-05-13T13:44:07.143Z,1.00
2019-05-13T13:46:56.375Z,1.00
2019-05-13T13:49:44.041Z,1.00
2019-05-13T13:52:23.483Z,1.00
2019-05-13T13:55:02.954Z,1.00
2019-05-13T13:57:28.386Z,1.00
2019-05-13T14:02:36.865Z,1.00
2019-05-13T14:05:12.522Z,1.00
2019-05-13T14:07:55.250Z,1.00
2019-05-13T14:11:41.918Z,1.00
2019-05-13T14:13:42.618Z,1.00
2019-05-13T14:16:34.872Z,1.00
2019-05-13T14:22:05.477Z,1.00
2019-05-13T14:24:57.437Z,1.00
2019-05-13T14:27:53.261Z,1.00
2019-05-13T14:30:27.174Z,1.00
2019-05-13T14:33:02.392Z,1.00
2019-05-13T14:35:45.573Z,1.00
2019-05-13T14:41:44.805Z,1.00
2019-05-13T14:44:17.102Z,1.00
2019-05-13T14:46:48.727Z,1.00
2019-05-13T14:49:22.256Z,1.00
2019-05-13T14:51:56.387Z,1.00
2019-05-13T14:54:34.743Z,1.00
2019-05-13T14:57:16.452Z,1.00
2019-05-13T15:00:05.149Z,1.00
2019-05-13T15:02:47.507Z,1.00
2019-05-13T15:05:19.142Z,1.00
2019-05-13T15:08:02.604Z,1.00
2019-05-13T15:10:33.622Z,1.00
2019-05-13T15:19:15.358Z,1.00
2019-05-13T15:22:08.687Z,1.00
2019-05-13T15:28:22.137Z,1.00
2019-05-13T15:36:59.178Z,1.00
2019-05-13T15:39:31.555Z,1.00
2019-05-13T15:49:17.653Z,1.00
2019-05-13T15:57:55.011Z,1.00
2019-05-13T16:00:27.139Z,1.00
2019-05-13T16:03:01.644Z,1.00
2019-05-13T16:05:48.425Z,1.00
2019-05-13T16:08:19.252Z,1.00
2019-05-13T16:10:53.357Z,1.00
2019-05-13T16:13:24.596Z,1.00
2019-05-13T16:15:57.851Z,1.00
2019-05-13T16:18:35.360Z,1.00
2019-05-13T16:21:31.537Z,1.00
2019-05-13T16:24:03.823Z,1.00
2019-05-13T16:26:59.307Z,1.00
2019-05-13T16:29:32.485Z,1.00
2019-05-13T16:32:06.484Z,1.00
2019-05-13T16:34:38.103Z,1.00
2019-05-13T16:37:11.812Z,1.00
2019-05-13T16:39:43.254Z,1.00
2019-05-13T16:42:36.898Z,1.00
2019-05-13T16:45:09.136Z,1.00
2019-05-13T16:47:56.668Z,1.00
2019-05-13T16:50:22.209Z,1.00
2019-05-13T16:52:54.107Z,1.00
2019-05-13T16:55:25.857Z,1.00
2019-05-13T16:57:58.096Z,1.00
2019-05-13T17:00:31.769Z,1.00
2019-05-13T17:03:06.311Z,1.00
2019-05-13T17:05:51.520Z,1.00
2019-05-13T17:08:23.291Z,1.00
2019-05-13T17:10:58.557Z,1.00
2019-05-13T17:13:31.526Z,1.00
2019-05-13T17:16:01.837Z,1.00
2019-05-13T17:18:33.160Z,1.00
2019-05-13T17:21:04.352Z,1.00
2019-05-13T17:23:42.335Z,1.00
2019-05-13T17:26:19.353Z,1.00
2019-05-13T17:28:56.089Z,1.00
2019-05-13T17:31:26.522Z,1.00
2019-05-13T17:34:01.538Z,1.00
2019-05-13T17:37:28.338Z,1.00
2019-05-13T17:40:11.610Z,1.00
2019-05-13T17:43:41.270Z,1.00
2019-05-13T17:46:17.562Z,1.00
2019-05-13T17:49:18.643Z,1.00
2019-05-13T17:55:00.961Z,1.00
2019-05-13T17:57:34.432Z,1.00
2019-05-13T18:00:12.655Z,1.00
2019-05-13T18:02:43.113Z,1.00
2019-05-13T18:08:03.374Z,1.00
2019-05-13T18:10:33.798Z,1.00
2019-05-13T18:13:08.361Z,1.00
2019-05-13T18:15:53.774Z,1.00
2019-05-13T18:18:46.294Z,1.00
2019-05-13T18:21:13.288Z,1.00
2019-05-13T18:23:46.919Z,1.00
2019-05-13T18:26:24.831Z,1.00
2019-05-13T18:29:12.409Z,1.00
2019-05-13T18:31:48.522Z,1.00
2019-05-13T18:38:21.106Z,1.00
2019-05-13T18:41:01.625Z,1.00
2019-05-13T18:44:15.441Z,1.00
2019-05-13T18:51:15.223Z,1.00
2019-05-13T19:03:09.316Z,1.00
2019-05-13T19:22:21.609Z,1.00
2019-05-13T19:25:39.835Z,1.00
2019-05-13T19:28:11.979Z,1.00
2019-05-13T19:39:15.946Z,1.00
2019-05-13T19:45:28.978Z,1.00
2019-05-13T19:48:41.702Z,1.00
2019-05-13T19:54:22.297Z,1.00
2019-05-13T20:00:17.697Z,1.00
2019-05-13T20:05:48.463Z,1.00
2019-05-13T20:08:21.236Z,1.00
2019-05-13T20:10:56.777Z,1.00
2019-05-13T20:15:01.525Z,1.00
2019-05-13T20:30:33.618Z,1.00
2019-05-13T20:33:18.962Z,1.00
2019-05-13T20:35:52.599Z,1.00
2019-05-13T20:38:26.357Z,1.00
2019-05-13T20:41:01.373Z,1.00
2019-05-13T20:43:32.964Z,1.00
2019-05-13T20:46:20.092Z,1.00
2019-05-13T20:49:05.387Z,1.00
2019-05-13T20:51:47.368Z,1.00
2019-05-13T20:54:26.332Z,1.00
2019-05-13T20:57:02.044Z,1.00
2019-05-13T21:02:56.807Z,1.00
2019-05-13T21:08:52.159Z,3.00
2019-05-13T21:11:31.002Z,2.30
2019-05-13T21:14:12.916Z,7.20
2019-05-13T21:16:45.491Z,2.50
2019-05-13T21:19:22.107Z,1.00
2019-05-13T21:21:57.724Z,1.40
2019-05-13T21:24:56.140Z,4.30
2019-05-13T21:27:55.711Z,1.00
2019-05-13T21:30:28.786Z,1.00
2019-05-13T21:33:08.210Z,1.00
2019-05-13T21:35:41.935Z,1.00
2019-05-13T21:38:15.183Z,1.00
2019-05-13T21:40:52.057Z,1.00
2019-05-13T21:43:52.361Z,1.00
2019-05-13T21:46:24.128Z,1.00
2019-05-13T21:48:57.533Z,1.00
2019-05-13T21:51:33.979Z,1.00
2019-05-13T21:54:04.676Z,1.00
2019-05-13T21:56:44.462Z,1.00
2019-05-13T21:59:18.146Z,1.00
2019-05-13T22:02:09.996Z,1.00
2019-05-13T22:04:55.588Z,1.00
2019-05-13T22:07:41.916Z,1.00
2019-05-13T22:10:13.158Z,1.00
2019-05-13T22:12:52.123Z,1.00
2019-05-13T22:16:14.459Z,1.00
2019-05-13T22:18:47.757Z,1.00
2019-05-13T22:21:21.341Z,1.00
2019-05-13T22:24:04.206Z,1.00
2019-05-13T22:26:36.619Z,1.00
2019-05-13T22:29:07.248Z,1.00
2019-05-13T22:31:47.083Z,1.00
2019-05-13T22:34:21.262Z,1.00
2019-05-13T22:46:51.722Z,1.00
2019-05-13T22:49:23.223Z,1.00
2019-05-13T22:51:54.362Z,1.00
2019-05-13T22:54:25.085Z,1.00
2019-05-13T22:56:55.516Z,1.00
2019-05-13T22:59:26.138Z,1.30
2019-05-13T23:01:56.918Z,1.00
2019-05-13T23:04:27.587Z,1.00
2019-05-13T23:06:58.079Z,1.00
2019-05-13T23:09:28.871Z,2.50
2019-05-13T23:12:01.710Z,1.00
2019-05-13T23:14:32.230Z,1.00
2019-05-13T23:17:02.890Z,1.20
2019-05-13T23:19:33.346Z,5.80
2019-05-13T23:22:03.883Z,9.80
2019-05-13T23:24:34.293Z,16.70
2019-05-13T23:27:04.856Z,28.00
2019-05-13T23:29:35.307Z,28.90
2019-05-13T23:32:06.091Z,30.20
2019-05-13T23:34:36.556Z,24.80
2019-05-13T23:37:07.261Z,19.90
2019-05-13T23:39:37.959Z,20.40
2019-05-13T23:42:08.437Z,21.00
2019-05-13T23:44:41.193Z,19.20
2019-05-13T23:47:11.664Z,19.80
2019-05-13T23:49:43.675Z,18.00
2019-05-13T23:52:14.178Z,17.30
2019-05-13T23:54:48.567Z,21.40
2019-05-13T23:57:26.614Z,26.10
